Nearby METAR Reports

 

KMNN - Marion, Ohio, USA
Distance from station: ENE 4mi, 6km
Updated: 07/01/2022 10:53am
Clear
Clear
 Wind from W
Wind: W 12 mph , 19 km/h
Temperature: 88°F , 31°C
Heat Index: 90°F , 32°C
Dew Point: 64°F , 18°C
Humidity: 46%
Barometer: 30.01 inHg , 1016.3 hPa
Clouds: Clear
Visibility: 10 miles , 16 km
2022/07/01 14:53 KMNN 011453Z AUTO 27010KT 10SM CLR 31/18 A3001 RMK AO2 SLP155 T03110178 $
KDLZ - Delaware, Ohio, USA
Distance from station: S 21mi, 34km
Updated: 07/01/2022 11:55am
Clear
Clear
 Wind from WSW
Wind: WSW 7 mph , 11 km/h
Temperature: 86°F , 30°C
Heat Index: 86°F , 30°C
Dew Point: 61°F , 16°C
Humidity: 43%
Barometer: 30.03 inHg , 1016.9 hPa
Clouds: Clear
Visibility: 10 miles , 16 km
2022/07/01 15:55 KDLZ 011555Z AUTO 25006KT 10SM CLR 30/16 A3003 RMK AO2
 
KMRT - Marysville, Ohio, USA
Distance from station: SSW 28mi, 45km
Updated: 07/01/2022 11:55am
Clear
Clear
 Wind from WSW
Wind: WSW 10 mph , 17 km/h, Gust: 16 mph , 26 km/h
Temperature: 88°F , 31°C
Heat Index: 89°F , 32°C
Dew Point: 63°F , 17°C
Humidity: 43%
Barometer: 30.03 inHg , 1016.9 hPa
Clouds: Clear
Visibility: 10 miles , 16 km
2022/07/01 15:55 KMRT 011555Z AUTO 25009G14KT 10SM CLR 31/17 A3003 RMK AO2 T03130167
KOSU - Columbus/St Univ, Ohio, USA
Distance from station: S 35mi, 56km
Updated: 07/01/2022 11:53am
Few Clouds
Few Clouds
 Wind from WSW
Wind: WSW 13 mph , 20 km/h, Gust: 22 mph , 35 km/h
Temperature: 91°F , 33°C
Heat Index: 94°F , 34°C
Dew Point: 66°F , 19°C
Humidity: 44%
Barometer: 30.03 inHg , 1016.9 hPa
Clouds: Few Clouds
Visibility: 10 miles , 16 km
Cloud details: Few Clouds 4700 ft
2022/07/01 15:53 KOSU 011553Z 24011G19KT 10SM FEW047 33/19 A3003 RMK AO2 SLP158 T03280189
 
KMFD - Mansfield, Ohio, USA
Distance from station: ENE 36mi, 57km
Updated: 07/01/2022 11:52am
Clear
Clear
 Wind from SW
Wind: SW 12 mph , 19 km/h, Gust: 20 mph , 31 km/h
Temperature: 88°F , 31°C
Heat Index: 89°F , 32°C
Dew Point: 63°F , 17°C
Humidity: 43%
Barometer: 30.03 inHg , 1016.9 hPa
Clouds: Clear
Visibility: 10 miles , 16 km
2022/07/01 15:52 KMFD 011552Z 22010G17KT 10SM CLR 31/17 A3003 RMK AO2 SLP156 T03110167
K4I3 - Mt Vernon/Knox, Ohio, USA
Distance from station: ESE 36mi, 58km
Updated: 07/01/2022 11:55am
Partly cloudy
Partly cloudy
 Wind from SSW
Wind: SSW 7 mph , 11 km/h
Temperature: 88°F , 31°C
Heat Index: 91°F , 33°C
Dew Point: 66°F , 19°C
Humidity: 49%
Barometer: 30.05 inHg , 1017.6 hPa
Clouds: Partly cloudy
Visibility: 10 miles , 16 km
Cloud details: Partly cloudy 4200 ft
2022/07/01 15:55 K4I3 011555Z AUTO 20006KT 10SM SCT042 31/19 A3005 RMK AO2
 
KEDJ - Bellefontaine, Ohio, USA
Distance from station: WSW 39mi, 63km
Updated: 07/01/2022 11:55am
Clear
Clear
 Wind from WSW
Wind: WSW 15 mph , 24 km/h
Temperature: 90°F , 32°C
Heat Index: 92°F , 33°C
Dew Point: 64°F , 18°C
Humidity: 43%
Barometer: 30.03 inHg , 1016.9 hPa
Clouds: Clear
Visibility: 10 miles , 16 km
2022/07/01 15:55 KEDJ 011555Z AUTO 25013KT 10SM CLR 32/18 A3003 RMK A01
KFDY - Findlay, Ohio, USA
Distance from station: NW 41mi, 66km
Updated: 07/01/2022 11:53am
Light rain, Clear
Light rain, Clear
 Wind from SW
Wind: SW 21 mph , 33 km/h, Gust: 26 mph , 43 km/h
Temperature: 90°F , 32°C
Heat Index: 93°F , 34°C
Dew Point: 66°F , 19°C
Humidity: 46%
Barometer: 29.96 inHg , 1014.6 hPa
Summary: Light rain
Clouds: Clear
Visibility: 10 miles , 16 km
2022/07/01 15:53 KFDY 011553Z AUTO 23018G23KT 10SM -RA CLR 32/19 A2996 RMK AO2 SLP134 P0000 T03170189
 
KCMH - Columbus, Ohio, USA
Distance from station: SSE 43mi, 69km
Updated: 07/01/2022 11:51am
Partly cloudy
Partly cloudy
 Wind from W
Wind: W 14 mph , 22 km/h, Gust: 18 mph , 30 km/h
Temperature: 90°F , 32°C
Heat Index: 94°F , 34°C
Dew Point: 68°F , 20°C
Humidity: 49%
Barometer: 30.02 inHg , 1016.6 hPa
Clouds: Partly cloudy
Visibility: 10 miles , 16 km
Cloud details: Partly cloudy 4400 ft
Partly cloudy 25000 ft
2022/07/01 15:51 KCMH 011551Z 26012G16KT 10SM SCT044 SCT250 32/20 A3002 RMK AO2 SLP158 T03220200
KAOH - Lima, Ohio, USA
Distance from station: W 47mi, 76km
Updated: 07/01/2022 11:53am
Clear
Clear
 Wind from SW
Wind: SW 20 mph , 31 km/h, Gust: 29 mph , 46 km/h
Temperature: 90°F , 32°C
Heat Index: 93°F , 34°C
Dew Point: 66°F , 19°C
Humidity: 46%
Barometer: 29.99 inHg , 1015.6 hPa
Clouds: Clear
Visibility: 10 miles , 16 km
2022/07/01 15:53 KAOH 011553Z AUTO 23017G25KT 10SM CLR 32/19 A2999 RMK AO2 PK WND 25026/1522 SLP146 T03220189
 
KTZR - Columbus/Bolton, Ohio, USA
Distance from station: S 48mi, 77km
Updated: 07/01/2022 11:50am
Mostly cloudy
Mostly cloudy
 Wind from WNW
Wind: WNW 15 mph , 24 km/h, Gust: 23 mph , 37 km/h
Temperature: 88°F , 31°C
Heat Index: 93°F , 34°C
Dew Point: 70°F , 21°C
Humidity: 55%
Barometer: 30.04 inHg , 1017.3 hPa
Clouds: Mostly cloudy
Visibility: 10 miles , 16 km
Cloud details: Partly cloudy 4100 ft
Partly cloudy 5000 ft
Mostly cloudy 7000 ft
2022/07/01 15:50 KTZR 011550Z 29013G20KT 10SM SCT041 SCT050 BKN070 31/21 A3004
KUYF - London, Ohio, USA
Distance from station: SSW 49mi, 78km
Updated: 07/01/2022 11:55am
Partly cloudy
Partly cloudy
 Wind from WSW
Wind: WSW 14 mph , 22 km/h, Gust: 21 mph , 33 km/h
Temperature: 88°F , 31°C
Heat Index: 90°F , 32°C
Dew Point: 64°F , 18°C
Humidity: 46%
Barometer: 30.05 inHg , 1017.6 hPa
Clouds: Partly cloudy
Visibility: 10 miles , 16 km
Cloud details: Partly cloudy 4000 ft
Partly cloudy 5000 ft
Partly cloudy 10000 ft
2022/07/01 15:55 KUYF 011555Z AUTO 25012G18KT 10SM SCT040 SCT050 SCT100 31/18 A3005 RMK AO2